Time;durP1;ratioP1;P1;durP2;ratioP2;P2;SDS_P1;SDS_P2;PMS_P1;PMS_P2;Temp;Humidity;BMP_temperature;BMP_pressure;BME280_temperature;BME280_humidity;BME280_pressure;Samples;Min_cycle;Max_cycle;Signal;HPM_P1;HPM_P2
2022/05/02 00:00:48;;;;;;;12.02;5.20;;;;;;;-144.47;50.61;53332.81;5036788;28;20363;-67
2022/05/02 00:03:14;;;;;;;11.63;5.35;;;;;;;-144.47;50.90;53308.97;5031987;28;20037;-67
2022/05/02 00:05:40;;;;;;;12.88;5.47;;;;;;;-144.47;50.94;53279.16;5031798;28;20037;-66
2022/05/02 00:08:06;;;;;;;11.52;5.20;;;;;;;-144.47;50.77;53285.13;5032249;28;20041;-66
2022/05/02 00:10:32;;;;;;;10.77;5.07;;;;;;;-144.47;51.07;53312.94;5013948;28;20387;-65
2022/05/02 00:12:58;;;;;;;14.48;5.65;;;;;;;-144.47;51.10;53277.19;5031604;28;20165;-68
2022/05/02 00:15:23;;;;;;;11.20;5.40;;;;;;;-144.47;51.00;53310.94;5031660;28;20522;-66
2022/05/02 00:17:58;;;;;;;10.02;5.15;;;;;;;-144.47;51.24;53308.97;5031516;28;20034;-67
2022/05/02 00:20:23;;;;;;;9.43;4.65;;;;;;;-144.47;51.38;53328.81;5031757;28;20038;-67
2022/05/02 00:22:49;;;;;;;12.00;5.75;;;;;;;-144.47;51.27;53336.78;5031270;28;20052;-67
2022/05/02 00:25:14;;;;;;;13.57;5.15;;;;;;;-144.47;51.52;53340.75;5031545;28;20028;-67
2022/05/02 00:27:41;;;;;;;9.98;5.32;;;;;;;-144.47;51.74;53314.91;5032459;28;20107;-66
2022/05/02 00:30:08;;;;;;;13.15;6.88;;;;;;;-144.47;51.64;53271.22;5031778;28;20049;-67
2022/05/02 00:32:34;;;;;;;9.77;5.30;;;;;;;-144.47;51.70;53324.84;5030373;28;20601;-66
2022/05/02 00:35:00;;;;;;;17.88;5.95;;;;;;;-144.47;51.76;53342.72;5023577;28;20116;-67
2022/05/02 00:37:25;;;;;;;10.48;5.28;;;;;;;-144.47;51.40;53306.97;5031471;28;20021;-66
2022/05/02 00:39:50;;;;;;;10.73;4.93;;;;;;;-144.47;51.84;53322.88;5031970;28;20107;-66
2022/05/02 00:42:16;;;;;;;11.18;5.35;;;;;;;-144.47;51.81;53336.78;5031201;28;20040;-66
2022/05/02 00:44:43;;;;;;;9.73;5.38;;;;;;;-144.47;51.98;53318.91;5031212;28;20442;-66
2022/05/02 00:47:09;;;;;;;15.88;5.30;;;;;;;-144.47;51.82;53324.84;5030391;28;20091;-66
2022/05/02 00:49:35;;;;;;;10.85;5.30;;;;;;;-144.47;51.89;53320.88;5031220;28;20029;-66
2022/05/02 00:52:00;;;;;;;10.90;5.22;;;;;;;-144.47;52.07;53328.81;5031100;28;20454;-67
2022/05/02 00:54:26;;;;;;;8.40;4.88;;;;;;;-144.47;52.18;53293.06;5030682;28;20046;-67
2022/05/02 00:56:51;;;;;;;13.88;5.25;;;;;;;-144.47;52.21;53338.75;5031162;28;20044;-66
2022/05/02 00:59:18;;;;;;;11.13;4.75;;;;;;;-144.47;52.08;53344.72;5030751;28;20501;-66
2022/05/02 01:01:43;;;;;;;8.80;5.22;;;;;;;-144.47;51.99;53297.03;5028102;28;20045;-66
2022/05/02 01:04:09;;;;;;;10.75;5.32;;;;;;;-144.47;52.14;53306.97;5030655;28;20091;-67
2022/05/02 01:09:18;;;;;;;10.65;5.45;;;;;;;-144.47;52.42;53328.81;5031309;28;20036;-67
2022/05/02 01:11:43;;;;;;;9.18;4.90;;;;;;;-144.47;52.35;53334.78;5028221;28;20033;-66
2022/05/02 01:14:09;;;;;;;12.98;5.05;;;;;;;-144.47;52.54;53316.91;5030255;28;20043;-66
2022/05/02 01:16:34;;;;;;;17.42;6.13;;;;;;;-144.47;52.64;53305.00;5030539;28;20037;-66
2022/05/02 01:19:00;;;;;;;9.50;5.90;;;;;;;-144.47;52.56;53308.97;5031074;28;20053;-66
2022/05/02 01:21:29;;;;;;;9.18;5.22;;;;;;;-144.47;52.66;53356.63;5030313;28;20048;-66
2022/05/02 01:23:58;;;;;;;11.07;5.18;;;;;;;-144.47;52.57;53340.75;5030305;28;20035;-67
2022/05/02 01:26:24;;;;;;;14.38;6.00;;;;;;;-144.47;52.47;53328.81;5013734;28;20083;-66
2022/05/02 01:28:51;;;;;;;9.95;4.93;;;;;;;-144.47;52.51;53324.84;5031071;28;20051;-64
2022/05/02 01:31:19;;;;;;;15.27;4.97;;;;;;;-144.47;52.67;53340.75;5025110;28;20560;-66
2022/05/02 01:33:45;;;;;;;11.90;5.72;;;;;;;-144.47;52.66;53306.97;5029341;28;20120;-67
2022/05/02 01:36:11;;;;;;;10.15;5.90;;;;;;;-144.47;52.64;53299.03;5024161;28;20529;-66
2022/05/02 01:38:37;;;;;;;10.45;5.22;;;;;;;-144.47;52.82;53265.25;5030247;28;20061;-67
2022/05/02 01:41:03;;;;;;;9.98;5.55;;;;;;;-144.47;52.90;53305.00;5029660;28;20042;-66
2022/05/02 01:43:29;;;;;;;12.77;5.15;;;;;;;-144.47;52.94;53297.03;5029140;28;20033;-68
2022/05/02 01:45:54;;;;;;;18.33;6.03;;;;;;;-144.47;52.90;53295.06;5030670;28;20575;-67
2022/05/02 01:48:20;;;;;;;14.25;6.32;;;;;;;-144.47;53.01;53295.06;5030176;28;20045;-67
2022/05/02 01:50:45;;;;;;;14.23;6.22;;;;;;;-144.47;53.12;53340.75;5029958;28;20476;-67
2022/05/02 01:53:11;;;;;;;11.07;6.13;;;;;;;-144.47;53.29;53340.75;5029661;28;20034;-67
2022/05/02 01:55:36;;;;;;;16.08;5.95;;;;;;;-144.47;53.19;53336.78;5029974;28;20040;-67
2022/05/02 01:58:01;;;;;;;14.02;5.88;;;;;;;-144.47;53.58;53287.13;5030031;28;20491;-66
2022/05/02 02:00:27;;;;;;;11.80;5.65;;;;;;;-144.47;53.42;53306.97;5029233;28;20040;-67
2022/05/02 02:02:52;;;;;;;12.20;6.40;;;;;;;-144.47;53.57;53334.78;5028519;28;20033;-66
2022/05/02 02:08:02;;;;;;;12.10;6.43;;;;;;;-144.47;53.83;53336.78;5027173;28;20116;-67
2022/05/02 02:10:28;;;;;;;9.90;5.78;;;;;;;-144.47;53.62;53340.75;5028747;28;20053;-67
2022/05/02 02:12:53;;;;;;;13.02;5.75;;;;;;;-144.47;53.85;53330.81;5028521;28;20079;-68
2022/05/02 02:15:18;;;;;;;12.23;5.80;;;;;;;-144.47;53.97;53362.59;5029471;28;20033;-66
2022/05/02 02:17:44;;;;;;;10.15;5.47;;;;;;;-144.47;54.18;53316.91;5028970;28;20052;-66
2022/05/02 02:20:10;;;;;;;11.35;5.32;;;;;;;-144.47;54.35;53334.78;5011945;28;20034;-68
2022/05/02 02:22:36;;;;;;;12.85;5.38;;;;;;;-144.47;54.48;53336.78;5028230;28;20104;-67
2022/05/02 02:25:03;;;;;;;13.35;5.97;;;;;;;-144.47;54.41;53301.03;5030302;28;20471;-66
2022/05/02 02:27:28;;;;;;;10.70;5.65;;;;;;;-144.47;54.82;53332.81;5028310;28;20057;-67
2022/05/02 02:29:53;;;;;;;16.73;6.70;;;;;;;-144.47;54.68;53326.84;5028937;28;20029;-65
2022/05/02 02:32:19;;;;;;;11.15;5.40;;;;;;;-144.47;54.90;53332.81;5022666;28;20026;-67
2022/05/02 02:34:44;;;;;;;13.27;6.50;;;;;;;-144.47;55.01;53352.66;5025052;28;20030;-67
2022/05/02 02:37:10;;;;;;;12.50;6.90;;;;;;;-144.47;55.00;53316.91;5028380;28;20025;-66
2022/05/02 02:39:35;;;;;;;19.63;6.53;;;;;;;-144.47;55.21;53336.78;5029144;28;20087;-67
2022/05/02 02:42:00;;;;;;;17.60;6.82;;;;;;;-144.47;55.12;53328.81;5028210;28;20038;-65
2022/05/02 02:44:26;;;;;;;15.88;6.80;;;;;;;-144.47;55.43;53312.94;5028185;28;20037;-66
2022/05/02 02:46:51;;;;;;;9.93;5.88;;;;;;;-144.47;55.39;53320.88;5029168;28;20414;-67
2022/05/02 02:49:16;;;;;;;13.25;6.50;;;;;;;-144.47;55.53;53314.91;5029442;28;20053;-67
2022/05/02 02:51:41;;;;;;;10.88;5.88;;;;;;;-144.47;55.67;53332.81;5028885;28;20040;-67
2022/05/02 02:54:07;;;;;;;11.85;6.28;;;;;;;-144.47;55.75;53352.66;5029404;28;20128;-65
2022/05/02 02:56:32;;;;;;;10.02;5.90;;;;;;;-144.47;55.83;53320.88;5011077;28;20041;-66
2022/05/02 02:58:57;;;;;;;13.00;5.75;;;;;;;-144.47;55.75;53368.56;5029088;28;20043;-66
2022/05/02 03:01:23;;;;;;;14.85;6.10;;;;;;;-144.47;56.09;53340.75;5028324;28;20033;-66
2022/05/02 03:03:48;;;;;;;13.93;6.43;;;;;;;-144.47;55.89;53308.97;5029677;28;20082;-67
2022/05/02 03:06:14;;;;;;;12.98;6.43;;;;;;;-144.47;56.07;53320.88;5027953;28;20385;-68
2022/05/02 03:08:44;;;;;;;12.02;6.97;;;;;;;-144.47;56.12;53324.84;5028233;28;20068;-68
2022/05/02 03:11:10;;;;;;;14.75;6.00;;;;;;;-144.47;56.35;53314.91;5026361;28;20183;-69
2022/05/02 03:13:35;;;;;;;13.70;6.38;;;;;;;-144.47;56.51;53344.72;5027633;28;20040;-67
2022/05/02 03:16:01;;;;;;;15.70;6.93;;;;;;;-144.47;56.26;53332.81;5029546;28;20182;-66
2022/05/02 03:18:26;;;;;;;13.25;6.82;;;;;;;-144.47;56.63;53285.13;5028517;28;20058;-67
2022/05/02 03:20:52;;;;;;;18.30;7.05;;;;;;;-144.47;56.30;53303.00;5028090;28;20471;-67
2022/05/02 03:23:18;;;;;;;16.55;7.07;;;;;;;-144.47;56.63;53336.78;5028784;28;20241;-67
2022/05/02 03:25:43;;;;;;;11.07;6.13;;;;;;;-144.47;56.66;53334.78;5027816;28;20080;-67
2022/05/02 03:28:08;;;;;;;11.60;6.75;;;;;;;-144.47;56.44;53324.84;5029385;28;20029;-67
2022/05/02 03:30:34;;;;;;;15.98;7.25;;;;;;;-144.47;56.87;53322.88;5028727;28;20491;-68
2022/05/02 03:33:01;;;;;;;12.30;7.22;;;;;;;-144.47;56.86;53390.41;5027259;28;20034;-66
2022/05/02 03:35:26;;;;;;;14.80;6.78;;;;;;;-144.47;56.86;53320.88;5017069;28;20033;-66
2022/05/02 03:37:51;;;;;;;16.02;6.65;;;;;;;-144.47;56.85;53318.91;5027377;28;20195;-67
2022/05/02 03:40:17;;;;;;;12.25;6.80;;;;;;;-144.47;56.78;53293.06;5027835;28;20083;-68
2022/05/02 03:42:45;;;;;;;13.32;6.22;;;;;;;-144.47;56.85;53346.72;5028284;28;20088;-66
2022/05/02 03:45:10;;;;;;;16.08;6.68;;;;;;;-144.47;56.76;53330.81;5028651;28;20029;-66
2022/05/02 03:47:35;;;;;;;13.27;6.32;;;;;;;-144.47;56.92;53322.88;5027764;28;20556;-67
2022/05/02 03:50:01;;;;;;;12.15;6.85;;;;;;;-144.47;57.08;53344.72;5027838;28;20639;-67
2022/05/02 03:52:26;;;;;;;11.57;6.55;;;;;;;-144.47;56.87;53328.81;5026219;28;20037;-67
2022/05/02 03:54:52;;;;;;;14.77;6.15;;;;;;;-144.47;56.96;53330.81;5028397;28;20022;-67
2022/05/02 03:57:18;;;;;;;13.82;7.00;;;;;;;-144.47;57.12;53342.72;5028843;28;20038;-67
2022/05/02 03:59:43;;;;;;;35.05;9.68;;;;;;;-144.47;56.91;53326.84;5028176;28;20545;-68
2022/05/02 04:02:08;;;;;;;17.90;7.43;;;;;;;-144.47;56.95;53350.69;5034201;28;20403;-66
2022/05/02 04:04:33;;;;;;;12.80;6.68;;;;;;;-144.47;56.71;53342.72;5032728;28;20033;-68
2022/05/02 04:06:59;;;;;;;23.88;7.38;;;;;;;-144.47;56.69;53374.50;5034079;28;20096;-67
2022/05/02 04:09:24;;;;;;;14.68;7.15;;;;;;;-144.47;57.13;53299.03;5032890;28;20398;-67
2022/05/02 04:11:49;;;;;;;17.73;7.28;;;;;;;-144.47;57.09;53340.75;5031747;28;20042;-67
2022/05/02 04:14:15;;;;;;;13.20;6.93;;;;;;;-144.47;56.88;53336.78;5024291;28;20037;-68
2022/05/02 04:16:40;;;;;;;14.98;7.38;;;;;;;-144.47;56.94;53344.72;5007131;28;21131;-67
2022/05/02 04:19:05;;;;;;;20.88;7.00;;;;;;;-144.47;56.90;53360.63;5025015;28;20076;-67
2022/05/02 04:21:31;;;;;;;17.60;7.18;;;;;;;-144.47;56.71;53320.88;5029042;28;20156;-66
2022/05/02 04:23:57;;;;;;;14.70;7.22;;;;;;;-144.47;56.55;53320.88;5026967;28;20525;-68
2022/05/02 04:26:25;;;;;;;17.40;7.47;;;;;;;-144.47;56.51;53328.81;5030281;28;20548;-66
2022/05/02 04:28:50;;;;;;;19.90;7.63;;;;;;;-144.47;56.24;53338.75;5029179;28;20038;-68
2022/05/02 04:31:15;;;;;;;18.42;7.43;;;;;;;-144.47;56.18;53348.69;5006764;28;20021;-67
2022/05/02 04:33:41;;;;;;;13.13;6.70;;;;;;;-144.47;56.23;53338.75;5027392;28;20021;-66
2022/05/02 04:36:07;;;;;;;15.85;7.13;;;;;;;-144.47;56.01;53324.84;5029606;28;20064;-72
2022/05/02 04:38:33;;;;;;;19.48;7.05;;;;;;;-144.47;56.04;53382.47;5032378;28;20505;-65
2022/05/02 04:40:58;;;;;;;12.40;7.03;;;;;;;-144.47;55.72;53340.75;5032237;28;20038;-67
2022/05/02 04:43:24;;;;;;;12.82;7.43;;;;;;;-144.47;55.71;53360.63;5029970;28;20490;-66
2022/05/02 04:45:50;;;;;;;16.83;7.95;;;;;;;-144.47;55.37;53312.94;5032516;28;20028;-68
2022/05/02 04:48:16;;;;;;;12.15;6.55;;;;;;;-144.47;55.51;53394.38;5030952;28;20029;-69
2022/05/02 04:50:41;;;;;;;15.65;6.68;;;;;;;-144.47;55.27;53312.94;5033686;28;20037;-67
2022/05/02 04:53:06;;;;;;;12.05;6.78;;;;;;;-144.47;55.37;53340.75;5033970;28;20033;-66
2022/05/02 04:55:32;;;;;;;20.13;6.57;;;;;;;-144.47;55.26;53348.69;5035104;28;20037;-66
2022/05/02 04:57:57;;;;;;;14.80;7.15;;;;;;;-144.47;55.03;53330.81;5015177;28;20036;-67
2022/05/02 05:00:22;;;;;;;12.75;7.50;;;;;;;-144.47;55.07;53344.72;5029128;28;20078;-66
2022/05/02 05:02:48;;;;;;;16.75;6.57;;;;;;;-144.47;55.05;53305.00;5026786;28;20064;-66
2022/05/02 05:05:13;;;;;;;13.85;6.70;;;;;;;-144.47;55.05;53324.84;5014327;28;20179;-67
2022/05/02 05:07:39;;;;;;;17.83;6.97;;;;;;;-144.47;55.21;53324.84;5034521;28;20351;-68
2022/05/02 05:10:06;;;;;;;14.93;7.93;;;;;;;-144.47;54.52;53336.78;5027510;28;20080;-69
2022/05/02 05:12:38;;;;;;;21.83;8.13;;;;;;;-144.47;54.44;53318.91;5026708;28;20116;-68
2022/05/02 05:18:13;;;;;;;24.48;8.20;;;;;;;-144.47;54.67;53328.81;5025222;28;20032;-67
2022/05/02 05:21:02;;;;;;;15.30;7.40;;;;;;;-144.47;54.74;53301.03;5022884;28;20050;-69
2022/05/02 05:23:34;;;;;;;15.38;7.00;;;;;;;-144.47;54.16;53310.94;5027062;28;20056;-68
2022/05/02 05:26:22;;;;;;;13.85;7.75;;;;;;;-144.47;54.24;53306.97;5026909;28;20037;-69
2022/05/02 05:29:08;;;;;;;13.77;7.50;;;;;;;-144.47;54.21;53330.81;5008882;28;20124;-68
2022/05/02 05:31:36;;;;;;;16.48;6.85;;;;;;;-144.47;54.16;53334.78;5027112;28;20044;-67
2022/05/02 05:34:16;;;;;;;16.83;7.97;;;;;;;-144.47;54.05;53308.97;5027650;28;20017;-68
2022/05/02 05:37:32;;;;;;;13.65;7.07;;;;;;;-144.47;53.62;53370.53;5027194;28;20037;-68
2022/05/02 05:40:11;;;;;;;15.07;7.35;;;;;;;-144.47;53.77;53334.78;4996520;28;20045;-67
2022/05/02 05:43:01;;;;;;;25.70;6.88;;;;;;;-144.47;53.72;53301.03;5025599;28;20069;-67
2022/05/02 05:45:48;;;;;;;24.27;7.95;;;;;;;-144.47;53.36;53308.97;5029724;28;20132;-69
2022/05/02 05:48:47;;;;;;;16.50;7.10;;;;;;;-144.47;53.42;53326.84;5025273;28;20132;-68
2022/05/02 05:51:18;;;;;;;16.95;6.78;;;;;;;-144.47;53.20;53338.75;5039818;28;20060;-67
2022/05/02 05:53:59;;;;;;;22.38;7.38;;;;;;;-144.47;53.18;53312.94;5057816;23;20050;-71
2022/05/02 05:56:33;;;;;;;15.52;8.75;;;;;;;-144.47;52.91;53295.06;5030778;28;20529;-71
2022/05/02 05:59:10;;;;;;;17.90;8.02;;;;;;;-144.47;52.78;53330.81;5012588;28;20038;-71
2022/05/02 06:01:57;;;;;;;17.58;7.32;;;;;;;-144.47;52.61;53305.00;5029602;28;20048;-73
2022/05/02 06:04:25;;;;;;;16.20;7.95;;;;;;;-144.47;52.49;53316.91;4993115;28;20048;-71
2022/05/02 06:06:50;;;;;;;18.73;7.45;;;;;;;-144.47;51.94;53312.94;5010836;28;20648;-71
2022/05/02 06:09:17;;;;;;;11.05;6.40;;;;;;;-144.47;51.54;53324.84;5011051;28;20573;-72
2022/05/02 06:11:46;;;;;;;13.73;6.97;;;;;;;-144.47;51.32;53306.97;5010300;28;20065;-71
2022/05/02 06:14:13;;;;;;;17.20;7.72;;;;;;;-144.47;50.33;53263.28;5009234;28;20026;-71
2022/05/02 06:19:26;;;;;;;16.58;7.25;;;;;;;-144.47;49.28;53297.03;5006082;28;20029;-70
2022/05/02 06:21:53;;;;;;;20.30;7.97;;;;;;;-144.47;49.50;53293.06;5010085;28;20037;-71
2022/05/02 06:24:19;;;;;;;13.75;7.00;;;;;;;-144.47;49.38;53271.22;5009858;28;20554;-71
2022/05/02 06:26:46;;;;;;;13.52;6.97;;;;;;;-144.47;49.36;53308.97;4992376;28;20030;-70
2022/05/02 06:29:12;;;;;;;19.23;7.45;;;;;;;-144.47;49.49;53303.00;5009815;28;20030;-70
2022/05/02 06:31:45;;;;;;;18.30;6.32;;;;;;;-144.47;48.98;53308.97;5005190;28;20042;-70
2022/05/02 06:34:12;;;;;;;17.92;6.10;;;;;;;-144.47;48.24;53299.03;5010065;28;20017;-68
2022/05/02 06:37:18;;;;;;;15.40;7.15;;;;;;;-144.47;48.28;53273.22;5009742;28;20060;-75
2022/05/02 06:40:14;;;;;;;15.48;6.28;;;;;;;-144.47;47.78;53231.50;5008825;28;20037;-70
2022/05/02 06:43:03;;;;;;;15.13;7.00;;;;;;;-144.47;47.32;53265.25;5009864;28;20070;-69
2022/05/02 06:45:30;;;;;;;15.93;7.47;;;;;;;-144.47;47.24;53301.03;5009099;28;20037;-71
2022/05/02 06:48:17;;;;;;;21.45;6.50;;;;;;;-144.47;47.09;53281.16;5009861;28;20042;-70
2022/05/02 06:50:47;;;;;;;20.63;5.85;;;;;;;-144.47;46.70;53259.31;5008430;28;20038;-70
2022/05/02 06:53:27;;;;;;;27.38;6.53;;;;;;;-144.47;46.92;53273.22;5009039;28;20033;-71
2022/05/02 06:56:07;;;;;;;25.10;6.78;;;;;;;-144.47;46.84;53295.06;5009907;28;20029;-68
2022/05/02 06:59:09;;;;;;;12.93;6.10;;;;;;;-144.47;46.25;53265.25;5005918;28;20049;-70
2022/05/02 07:01:49;;;;;;;12.88;5.70;;;;;;;-144.47;45.99;53271.22;5008639;28;20634;-72
2022/05/02 07:04:18;;;;;;;12.43;6.18;;;;;;;-144.47;45.85;53330.81;5013715;28;20021;-70
2022/05/02 07:07:03;;;;;;;13.77;6.70;;;;;;;-144.47;45.73;53285.13;5009615;28;20369;-71
2022/05/02 07:09:40;;;;;;;18.48;6.78;;;;;;;-144.47;45.50;53229.50;5013610;28;20124;-71
2022/05/02 07:12:18;;;;;;;17.40;6.90;;;;;;;-144.47;45.48;53271.22;5007185;28;20188;-71
2022/05/02 07:15:04;;;;;;;17.07;7.00;;;;;;;-144.47;45.43;53263.28;5008634;28;20026;-68
2022/05/02 07:17:48;;;;;;;21.52;6.57;;;;;;;-144.47;45.25;53235.47;5002467;28;20458;-71
2022/05/02 07:20:23;;;;;;;12.98;6.70;;;;;;;-144.47;45.44;53275.19;5001137;28;20064;-70
2022/05/02 07:23:10;;;;;;;20.77;6.65;;;;;;;-144.47;45.11;53275.19;4999040;28;20041;-69
2022/05/02 07:25:43;;;;;;;13.25;6.10;;;;;;;-144.47;45.28;53257.31;5001060;28;20044;-71
2022/05/02 07:28:25;;;;;;;16.23;6.43;;;;;;;-144.47;45.25;53261.28;5008907;28;20021;-70
2022/05/02 07:30:55;;;;;;;11.27;6.28;;;;;;;-144.47;44.68;53295.06;4985435;28;20045;-71
2022/05/02 07:33:20;;;;;;;16.30;6.70;;;;;;;-144.47;44.88;53259.31;5001500;28;20045;-73
2022/05/02 07:35:47;;;;;;;18.02;7.18;;;;;;;-144.47;44.54;53261.28;5002562;28;20352;-70
2022/05/02 07:38:13;;;;;;;21.50;6.85;;;;;;;-144.47;44.14;53279.16;5003407;28;20036;-70
2022/05/02 07:41:22;;;;;;;15.65;5.93;;;;;;;-144.47;43.85;53275.19;5002973;28;20089;-71
2022/05/02 07:43:29;;;;;;;;;;;;;;;-144.47;43.89;53273.22;5001262;28;20038;-71
2022/05/02 07:45:56;;;;;;;17.35;6.75;;;;;;;-144.47;44.09;53291.09;5003156;28;19917;-73
2022/05/02 07:48:22;;;;;;;12.55;6.15;;;;;;;-144.47;43.74;53301.03;5011126;28;20034;-70
2022/05/02 07:50:49;;;;;;;20.58;6.57;;;;;;;-144.47;43.54;53231.50;5003018;28;20036;-69
2022/05/02 07:53:14;;;;;;;13.40;6.15;;;;;;;-144.47;43.50;53287.13;5001462;28;20042;-71
2022/05/02 07:55:40;;;;;;;12.15;6.28;;;;;;;-144.47;43.60;53241.44;5002213;28;20113;-70
2022/05/02 07:58:06;;;;;;;13.65;6.15;;;;;;;-144.47;44.10;53245.41;4983804;28;20029;-70
2022/05/02 08:00:31;;;;;;;18.23;6.90;;;;;;;-144.47;43.46;53261.28;5002296;28;20121;-70
2022/05/02 08:02:57;;;;;;;15.10;6.82;;;;;;;-144.47;43.33;53263.28;5001392;28;20165;-70
2022/05/02 08:05:26;;;;;;;22.63;7.07;;;;;;;-144.47;43.64;53301.03;5001999;28;20043;-72
2022/05/02 08:07:59;;;;;;;15.02;7.10;;;;;;;-144.47;43.22;53263.28;5002472;28;20050;-72
2022/05/02 08:10:59;;;;;;;15.68;6.88;;;;;;;-144.47;42.80;53253.34;4985314;28;20117;-72
2022/05/02 08:13:50;;;;;;;10.93;6.38;;;;;;;-144.47;42.75;53241.44;5012848;28;20037;-72
2022/05/02 08:16:23;;;;;;;14.77;6.80;;;;;;;-144.47;42.78;53249.38;5011353;28;20393;-71
2022/05/02 08:19:00;;;;;;;14.85;6.47;;;;;;;-144.47;42.51;53231.50;5006953;28;20026;-70
2022/05/02 08:21:37;;;;;;;14.68;6.57;;;;;;;-144.47;42.32;53251.34;4988516;28;20054;-71
2022/05/02 08:27:15;;;;;;;14.98;6.22;;;;;;;-144.47;42.10;53243.41;5005909;28;20073;-72
2022/05/02 08:30:05;;;;;;;15.07;7.00;;;;;;;-144.47;42.05;53251.34;5005464;28;20045;-69
2022/05/02 08:32:52;;;;;;;19.80;6.43;;;;;;;-144.47;42.35;53219.56;5006245;28;20400;-70
2022/05/02 08:35:45;;;;;;;14.52;6.30;;;;;;;-144.47;41.96;53273.22;5005612;28;20108;-71
2022/05/02 08:38:20;;;;;;;20.50;7.25;;;;;;;-144.47;41.77;53221.56;5003871;28;20482;-72
2022/05/02 08:41:20;;;;;;;14.77;6.47;;;;;;;-144.47;41.30;53247.38;5001870;28;20077;-72
2022/05/02 08:44:13;;;;;;;18.45;6.82;;;;;;;-144.47;41.58;53247.38;4999155;28;20105;-70
2022/05/02 08:47:10;;;;;;;20.65;6.75;;;;;;;-144.47;41.43;53253.34;5007595;28;20117;-71
2022/05/02 08:50:07;;;;;;;16.55;6.30;;;;;;;-144.47;40.77;53229.50;5005059;28;20048;-71
2022/05/02 08:52:55;;;;;;;18.90;6.50;;;;;;;-144.47;40.55;53215.59;4999475;28;20085;-70
2022/05/02 08:55:41;;;;;;;14.90;6.82;;;;;;;-144.47;40.39;53279.16;5005400;28;20034;-72
2022/05/02 08:58:37;;;;;;;20.42;5.82;;;;;;;-144.47;40.30;53235.47;5003768;28;20468;-68
2022/05/02 09:01:21;;;;;;;11.63;5.68;;;;;;;-144.47;39.99;53227.53;5005592;28;20038;-71
2022/05/02 09:04:04;;;;;;;13.55;5.85;;;;;;;-144.47;39.04;53251.34;5004627;28;20030;-69
2022/05/02 09:06:48;;;;;;;16.80;5.93;;;;;;;-144.47;40.04;53213.63;5005627;28;20073;-71
2022/05/02 09:09:29;;;;;;;15.52;6.75;;;;;;;-144.47;40.46;53217.59;5005360;28;20034;-72
2022/05/02 09:12:09;;;;;;;12.00;6.53;;;;;;;-144.47;40.01;53233.47;5004177;28;20046;-70
2022/05/02 09:15:04;;;;;;;18.17;7.25;;;;;;;-144.47;40.06;53229.50;5003780;28;20038;-72
2022/05/02 09:18:07;;;;;;;13.88;6.30;;;;;;;-144.47;39.34;53237.44;4979515;28;20057;-69
2022/05/02 09:20:54;;;;;;;12.65;5.72;;;;;;;-144.47;39.03;53221.56;5005143;28;20037;-69
2022/05/02 09:23:34;;;;;;;13.57;6.32;;;;;;;-144.47;38.71;53209.66;5002358;28;20133;-69
2022/05/02 09:26:05;;;;;;;17.33;6.55;;;;;;;-144.47;39.60;53223.56;5004979;28;20522;-70
2022/05/02 09:29:09;;;;;;;15.85;6.95;;;;;;;-144.47;39.70;53231.50;5004563;28;20061;-69
2022/05/02 09:32:17;;;;;;;14.38;6.57;;;;;;;-144.47;39.93;53245.41;5004886;28;20125;-69
2022/05/02 09:35:02;;;;;;;14.57;6.68;;;;;;;-144.47;39.75;53277.19;5001701;28;20038;-69
2022/05/02 09:37:40;;;;;;;15.98;6.65;;;;;;;-144.47;39.44;53261.28;5004001;28;21607;-70
2022/05/02 09:40:10;;;;;;;14.80;6.28;;;;;;;-144.47;39.00;53189.78;5005175;28;20022;-71
2022/05/02 09:42:56;;;;;;;16.95;6.57;;;;;;;-144.47;38.24;53193.75;5002635;28;20046;-70
2022/05/02 09:52:04;;;;;;;12.98;6.43;;;;;;;-144.47;38.17;53205.66;5004911;28;20072;-71
2022/05/02 09:57:58;;;;;;;15.15;5.80;;;;;;;-144.47;38.12;53239.44;5003088;28;20200;-71
2022/05/02 10:03:23;;;;;;;15.07;5.53;;;;;;;-144.47;38.20;53209.66;5005743;28;20048;-72
2022/05/02 10:05:56;;;;;;;13.48;6.45;;;;;;;-144.47;37.02;53229.50;5003305;28;20053;-73
2022/05/02 10:08:38;;;;;;;13.38;6.68;;;;;;;-144.47;36.93;53203.69;5003382;28;20085;-70
2022/05/02 10:11:29;;;;;;;12.82;6.32;;;;;;;-144.47;36.72;53205.66;5003178;28;20487;-71
2022/05/02 10:14:09;;;;;;;13.00;6.07;;;;;;;-144.47;37.00;53187.78;5001297;28;20038;-71
2022/05/02 10:16:35;;;;;;;18.25;6.30;;;;;;;-144.47;36.83;53203.69;5002280;28;20038;-70
2022/05/02 10:19:39;;;;;;;14.80;6.45;;;;;;;-144.47;36.60;53225.53;5004527;28;20113;-71
2022/05/02 10:22:14;;;;;;;11.00;5.72;;;;;;;-144.47;36.15;53217.59;4993867;28;20041;-70
2022/05/02 10:24:55;;;;;;;12.05;5.00;;;;;;;-144.47;36.25;53213.63;5002091;28;20111;-70
2022/05/02 10:27:29;;;;;;;18.10;5.80;;;;;;;-144.47;36.02;53203.69;5003315;28;20038;-71
2022/05/02 10:30:03;;;;;;;18.60;5.93;;;;;;;-144.47;36.11;53203.69;5003717;28;20048;-68
2022/05/02 10:32:56;;;;;;;14.20;6.45;;;;;;;-144.47;36.43;53185.81;5001256;28;20038;-70
2022/05/02 10:35:23;;;;;;;21.08;6.18;;;;;;;-144.47;36.13;53221.56;4995552;28;20120;-72
2022/05/02 10:38:00;;;;;;;15.05;5.75;;;;;;;-144.47;35.95;53233.47;5003476;28;20038;-71
2022/05/02 10:40:33;;;;;;;9.45;5.68;;;;;;;-144.47;36.00;53201.69;5003089;28;20064;-71
2022/05/02 10:43:03;;;;;;;16.13;5.78;;;;;;;-144.47;36.44;53209.66;5001591;28;20045;-70
2022/05/02 10:45:32;;;;;;;13.85;7.00;;;;;;;-144.47;35.95;53195.75;5003381;28;20587;-72
2022/05/02 10:48:11;;;;;;;13.32;6.10;;;;;;;-144.47;36.30;53205.66;5003061;28;20037;-71
2022/05/02 10:50:37;;;;;;;15.73;5.93;;;;;;;-144.47;36.46;53223.56;5002408;28;20762;-70
2022/05/02 10:53:31;;;;;;;15.18;6.10;;;;;;;-144.47;36.33;53171.91;5000539;28;20045;-72
2022/05/02 10:56:08;;;;;;;18.80;6.60;;;;;;;-144.47;36.13;53197.72;5002929;28;20038;-70
2022/05/02 10:58:34;;;;;;;13.05;6.95;;;;;;;-144.47;35.96;53209.66;5002961;28;20103;-70
2022/05/02 11:01:05;;;;;;;26.92;7.30;;;;;;;-144.47;36.37;53173.88;5003640;28;20697;-72
2022/05/02 11:04:09;;;;;;;14.10;6.28;;;;;;;-144.47;36.30;53191.78;5002239;28;20046;-70
2022/05/02 11:07:03;;;;;;;11.10;5.68;;;;;;;-144.47;36.19;53183.81;4977487;28;20560;-70
2022/05/02 11:10:01;;;;;;;16.42;6.10;;;;;;;-144.47;35.76;53167.94;5003504;28;20037;-70
2022/05/02 11:12:31;;;;;;;;;;;;;;;-144.47;35.86;53193.75;5002857;28;20054;-71
2022/05/02 11:15:24;;;;;;;11.05;5.88;;;;;;;-144.47;35.41;53239.44;5001364;28;19921;-69
2022/05/02 11:20:41;;;;;;;15.75;5.90;;;;;;;-144.47;35.38;53199.72;5003050;28;20042;-75
2022/05/02 11:21:12;;;;;;;16.38;5.97;;;;;;;-144.47;35.49;53221.56;5001497;28;20033;-71
2022/05/02 11:23:50;;;;;;;12.35;6.38;;;;;;;-144.47;34.83;53185.81;4995968;28;20192;-71
2022/05/02 11:26:27;;;;;;;16.83;6.28;;;;;;;-144.47;34.54;53175.88;4998888;28;20120;-72
2022/05/02 11:29:24;;;;;;;19.90;6.65;;;;;;;-144.47;34.44;53183.81;5001999;28;20084;-68
2022/05/02 11:32:05;;;;;;;17.17;6.30;;;;;;;-144.47;34.11;53205.66;4981615;28;20092;-69
2022/05/02 11:35:04;;;;;;;11.98;5.40;;;;;;;-144.47;33.47;53193.75;4999733;28;20931;-71
2022/05/02 11:37:54;;;;;;;10.77;5.43;;;;;;;-144.47;33.25;53177.88;4993373;28;20045;-72
2022/05/02 11:40:27;;;;;;;15.75;6.00;;;;;;;-144.47;33.47;53189.78;4997290;28;20061;-73
2022/05/02 11:42:54;;;;;;;14.98;6.25;;;;;;;-144.47;33.52;53199.72;4997138;28;20025;-70
2022/05/02 11:45:44;;;;;;;12.93;5.90;;;;;;;-144.47;33.67;53175.88;5001049;28;20798;-72
2022/05/02 11:48:31;;;;;;;10.82;5.65;;;;;;;-144.47;33.42;53193.75;5006882;28;20045;-70
2022/05/02 11:51:01;;;;;;;17.77;6.85;;;;;;;-144.47;32.78;53175.88;5009858;28;20049;-72
2022/05/02 11:53:39;;;;;;;15.90;7.25;;;;;;;-144.47;33.06;53187.78;5029280;22;20502;-69
2022/05/02 11:56:05;;;;;;;14.48;7.15;;;;;;;-144.47;32.52;53142.09;5048391;28;20033;-66
2022/05/02 11:58:45;;;;;;;12.02;6.35;;;;;;;-144.47;32.85;53173.88;5048560;28;20068;-68
2022/05/02 12:01:11;;;;;;;15.07;6.43;;;;;;;-144.47;32.98;53167.94;5046961;28;20021;-69
2022/05/02 12:03:43;;;;;;;16.60;6.78;;;;;;;-144.47;33.04;53193.75;5061689;28;20017;-68